Buoy 52912

sailwx.info

Track history (hours):
 
Tides and Currents Weather Stations Pressure Air Temp Water Temp Dewpoint Dewpoint Depression Visibility Wind Speed Wind Dir Waves Ship Positions

Drifting buoy 52912

Last reported at 2015-Mar-29 21:00 UTC. Time now 2015-Mar-29 23:48 UTC.
Position N 12°34' E 139°32'.

Water temperature 27.6 ° C

Date/timePositionNaut miles runAvg speedWind from/ knotsBaromVisibWave heightAir tempDewpointWater temp
2015-Mar-29 21:00N 12°34' E 139°32'1 0.7 27.6
2015-Mar-29 19:00N 12°35' E 139°33'2 1.6 27.6
2015-Mar-29 18:00N 12°36' E 139°35'0 0.1 27.6
2015-Mar-29 16:00N 12°36' E 139°35'3 0.5 27.6
2015-Mar-29 10:00N 12°38' E 139°37'3 0.5 27.7
2015-Mar-29 05:00N 12°36' E 139°39'4 0.5 27.8
2015-Mar-28 21:00N 12°34' E 139°42'0 0.0 27.5
2015-Mar-28 20:00N 12°34' E 139°42'1 1.4 27.5
2015-Mar-28 19:00N 12°33' E 139°44'0 0.0 27.5
2015-Mar-28 16:00N 12°33' E 139°44'2 0.5 27.6
2015-Mar-28 11:00N 12°33' E 139°46'2 2.1 27.6
2015-Mar-28 10:00N 12°32' E 139°48'1 1.4 27.6
2015-Mar-28 09:00N 12°31' E 139°49'0 0.1 27.6
2015-Mar-28 07:00N 12°31' E 139°49'2 1.8 27.7
2015-Mar-28 06:00N 12°31' E 139°51'1 0.7 27.7
2015-Mar-28 05:00N 12°31' E 139°52'0 0.0 27.7
2015-Mar-28 04:00N 12°31' E 139°52'6 0.8 27.6
2015-Mar-27 20:00N 12°30' E 139°58'0 0.0 27.5
2015-Mar-27 19:00N 12°30' E 139°58'5 2.6 27.5
2015-Mar-27 17:00N 12°32' E 140°03'0 0.0 27.5
2015-Mar-27 16:00N 12°32' E 140°03'0 0.0 27.5
2015-Mar-27 13:00N 12°32' E 140°03'0 0.1 27.6
2015-Mar-27 12:00N 12°32' E 140°03'1 0.2 27.6
2015-Mar-27 07:00N 12°32' E 140°05'2 0.6 27.6
2015-Mar-27 04:00N 12°32' E 140°07'0 0.0 27.6
2015-Mar-27 03:00N 12°32' E 140°07'6 0.8 27.6
2015-Mar-26 19:00N 12°31' E 140°13'1 0.4 27.5
2015-Mar-26 16:00N 12°32' E 140°14'5 0.6 27.5
2015-Mar-26 08:00N 12°33' E 140°19'6 0.5 27.6
2015-Mar-25 21:00N 12°32' E 140°26'2 0.9 27.5
2015-Mar-25 19:00N 12°33' E 140°27'1 0.4 27.6
2015-Mar-25 17:00N 12°33' E 140°28'3 1.4 27.6
2015-Mar-25 15:00N 12°34' E 140°31'0 0.0 27.6
2015-Mar-25 12:00N 12°34' E 140°31'0 0.1 27.6
2015-Mar-25 11:00N 12°34' E 140°31'3 0.9 27.6
2015-Mar-25 07:00N 12°32' E 140°34'0 0.0 27.7
2015-Mar-25 06:00N 12°32' E 140°34'4 1.8 27.7
2015-Mar-25 04:00N 12°32' E 140°38'8 0.5 27.7
2015-Mar-24 12:00N 12°34' E 140°45'1 0.2 27.7
2015-Mar-24 08:00N 12°34' E 140°46'0 0.2 28.0
2015-Mar-24 06:00N 12°34' E 140°47'1 0.4 27.9
2015-Mar-24 04:00N 12°34' E 140°48'4 0.5 28.0
2015-Mar-23 20:00N 12°35' E 140°51'0 0.0 27.6
2015-Mar-23 19:00N 12°35' E 140°51'0 0.5 27.6
2015-Mar-23 18:00N 12°35' E 140°52'1 0.4 27.6
2015-Mar-23 16:00N 12°35' E 140°53'3 0.3 27.7
2015-Mar-23 08:00N 12°37' E 140°55'1 0.4 27.8
2015-Mar-23 06:00N 12°36' E 140°56'1 0.7 27.9
2015-Mar-23 05:00N 12°36' E 140°56'1 0.9 28.0
2015-Mar-23 04:00N 12°35' E 140°57'0 0.0 28.0
2015-Mar-23 03:00N 12°35' E 140°57'5 0.6 27.9
2015-Mar-22 19:00N 12°35' E 141°02'1 0.4 27.7
2015-Mar-22 16:00N 12°36' E 141°03'0 0.0 27.7
2015-Mar-22 15:00N 12°36' E 141°03'3 0.9 27.7
2015-Mar-22 11:00N 12°37' E 141°07'0 0.0 27.8
2015-Mar-22 10:00N 12°37' E 141°07'2 0.3 27.8
2015-Mar-22 05:00N 12°37' E 141°08'0 0.1 28.0
2015-Mar-22 04:00N 12°37' E 141°08'5 0.8 27.9
2015-Mar-21 21:00N 12°38' E 141°14'2 0.7 27.6
2015-Mar-21 18:00N 12°39' E 141°15'1 0.1 27.6
2015-Mar-21 12:00N 12°40' E 141°15'10 0.4 27.8
2015-Mar-20 09:00N 12°41' E 141°25'   27.9
Track history (hours):
 
Tides and Currents Weather Stations Pressure Air Temp Water Temp Dewpoint Dewpoint Depression Visibility Wind Speed Wind Dir Waves Ship Positions

Drifting buoy 52912

Last reported at 2015-Mar-29 21:00 UTC. Time now 2015-Mar-29 23:48 UTC.
Position N 12°34' E 139°32'.

Water temperature 27.6 ° C

Date/timePositionNaut miles runAvg speedWind from/ knotsBaromVisibWave heightAir tempDewpointWater temp
2015-Mar-29 21:00N 12°34' E 139°32'1 0.7 27.6
2015-Mar-29 19:00N 12°35' E 139°33'2 1.6 27.6
2015-Mar-29 18:00N 12°36' E 139°35'0 0.1 27.6
2015-Mar-29 16:00N 12°36' E 139°35'3 0.5 27.6
2015-Mar-29 10:00N 12°38' E 139°37'3 0.5 27.7
2015-Mar-29 05:00N 12°36' E 139°39'4 0.5 27.8
2015-Mar-28 21:00N 12°34' E 139°42'0 0.0 27.5
2015-Mar-28 20:00N 12°34' E 139°42'1 1.4 27.5
2015-Mar-28 19:00N 12°33' E 139°44'0 0.0 27.5
2015-Mar-28 16:00N 12°33' E 139°44'2 0.5 27.6
2015-Mar-28 11:00N 12°33' E 139°46'2 2.1 27.6
2015-Mar-28 10:00N 12°32' E 139°48'1 1.4 27.6
2015-Mar-28 09:00N 12°31' E 139°49'0 0.1 27.6
2015-Mar-28 07:00N 12°31' E 139°49'2 1.8 27.7
2015-Mar-28 06:00N 12°31' E 139°51'1 0.7 27.7
2015-Mar-28 05:00N 12°31' E 139°52'0 0.0 27.7
2015-Mar-28 04:00N 12°31' E 139°52'6 0.8 27.6
2015-Mar-27 20:00N 12°30' E 139°58'0 0.0 27.5
2015-Mar-27 19:00N 12°30' E 139°58'5 2.6 27.5
2015-Mar-27 17:00N 12°32' E 140°03'0 0.0 27.5
2015-Mar-27 16:00N 12°32' E 140°03'0 0.0 27.5
2015-Mar-27 13:00N 12°32' E 140°03'0 0.1 27.6
2015-Mar-27 12:00N 12°32' E 140°03'1 0.2 27.6
2015-Mar-27 07:00N 12°32' E 140°05'2 0.6 27.6
2015-Mar-27 04:00N 12°32' E 140°07'0 0.0 27.6
2015-Mar-27 03:00N 12°32' E 140°07'6 0.8 27.6
2015-Mar-26 19:00N 12°31' E 140°13'1 0.4 27.5
2015-Mar-26 16:00N 12°32' E 140°14'5 0.6 27.5
2015-Mar-26 08:00N 12°33' E 140°19'6 0.5 27.6
2015-Mar-25 21:00N 12°32' E 140°26'2 0.9 27.5
2015-Mar-25 19:00N 12°33' E 140°27'1 0.4 27.6
2015-Mar-25 17:00N 12°33' E 140°28'3 1.4 27.6
2015-Mar-25 15:00N 12°34' E 140°31'0 0.0 27.6
2015-Mar-25 12:00N 12°34' E 140°31'0 0.1 27.6
2015-Mar-25 11:00N 12°34' E 140°31'3 0.9 27.6
2015-Mar-25 07:00N 12°32' E 140°34'0 0.0 27.7
2015-Mar-25 06:00N 12°32' E 140°34'4 1.8 27.7
2015-Mar-25 04:00N 12°32' E 140°38'8 0.5 27.7
2015-Mar-24 12:00N 12°34' E 140°45'1 0.2 27.7
2015-Mar-24 08:00N 12°34' E 140°46'0 0.2 28.0
2015-Mar-24 06:00N 12°34' E 140°47'1 0.4 27.9
2015-Mar-24 04:00N 12°34' E 140°48'4 0.5 28.0
2015-Mar-23 20:00N 12°35' E 140°51'0 0.0 27.6
2015-Mar-23 19:00N 12°35' E 140°51'0 0.5 27.6
2015-Mar-23 18:00N 12°35' E 140°52'1 0.4 27.6
2015-Mar-23 16:00N 12°35' E 140°53'3 0.3 27.7
2015-Mar-23 08:00N 12°37' E 140°55'1 0.4 27.8
2015-Mar-23 06:00N 12°36' E 140°56'1 0.7 27.9
2015-Mar-23 05:00N 12°36' E 140°56'1 0.9 28.0
2015-Mar-23 04:00N 12°35' E 140°57'0 0.0 28.0
2015-Mar-23 03:00N 12°35' E 140°57'5 0.6 27.9
2015-Mar-22 19:00N 12°35' E 141°02'1 0.4 27.7
2015-Mar-22 16:00N 12°36' E 141°03'0 0.0 27.7
2015-Mar-22 15:00N 12°36' E 141°03'3 0.9 27.7
2015-Mar-22 11:00N 12°37' E 141°07'0 0.0 27.8
2015-Mar-22 10:00N 12°37' E 141°07'2 0.3 27.8
2015-Mar-22 05:00N 12°37' E 141°08'0 0.1 28.0
2015-Mar-22 04:00N 12°37' E 141°08'5 0.8 27.9
2015-Mar-21 21:00N 12°38' E 141°14'2 0.7 27.6
2015-Mar-21 18:00N 12°39' E 141°15'1 0.1 27.6
2015-Mar-21 12:00N 12°40' E 141°15'10 0.4 27.8
2015-Mar-20 09:00N 12°41' E 141°25'   27.9

Dump ship's entire track history